createdAt,value
2023-03-22T00:01:38.641Z,34.25
2023-03-22T00:04:07.240Z,40.75
2023-03-22T00:06:35.738Z,43.75
2023-03-22T00:09:04.214Z,45.75
2023-03-22T00:11:32.697Z,39.50
2023-03-22T00:14:01.706Z,40.00
2023-03-22T00:16:30.298Z,43.50
2023-03-22T00:18:58.825Z,35.50
2023-03-22T00:21:27.239Z,38.00
2023-03-22T00:23:55.659Z,35.00
2023-03-22T00:26:24.118Z,39.50
2023-03-22T00:28:52.550Z,41.50
2023-03-22T00:31:21.135Z,38.75
2023-03-22T00:33:49.579Z,40.75
2023-03-22T00:36:18.094Z,37.75
2023-03-22T00:38:46.472Z,45.50
2023-03-22T00:41:20.903Z,38.25
2023-03-22T00:43:50.691Z,36.25
2023-03-22T00:46:21.833Z,35.25
2023-03-22T00:48:50.551Z,34.75
2023-03-22T00:51:19.087Z,40.75
2023-03-22T00:53:50.914Z,37.75
2023-03-22T00:56:19.786Z,33.50
2023-03-22T00:58:48.247Z,42.25
2023-03-22T01:01:16.726Z,41.25
2023-03-22T01:03:45.501Z,40.00
2023-03-22T01:06:13.924Z,44.25
2023-03-22T01:08:42.418Z,32.50
2023-03-22T01:11:11.265Z,37.75
2023-03-22T01:13:40.371Z,36.00
2023-03-22T01:16:10.071Z,37.25
2023-03-22T01:18:38.693Z,39.00
2023-03-22T01:21:07.621Z,35.00
2023-03-22T01:23:36.744Z,36.25
2023-03-22T01:26:06.246Z,42.75
2023-03-22T01:28:35.006Z,35.25
2023-03-22T01:31:04.988Z,39.00
2023-03-22T01:33:33.508Z,36.75
2023-03-22T01:36:02.073Z,41.00
2023-03-22T01:38:30.974Z,38.50
2023-03-22T01:40:59.662Z,35.50
2023-03-22T01:43:28.141Z,38.25
2023-03-22T01:45:57.040Z,31.50
2023-03-22T01:48:28.059Z,41.50
2023-03-22T01:51:07.580Z,37.50
2023-03-22T01:53:42.671Z,43.50
2023-03-22T01:56:13.201Z,42.00
2023-03-22T01:58:43.441Z,39.00
2023-03-22T02:01:12.923Z,44.25
2023-03-22T02:04:04.602Z,43.00
2023-03-22T02:06:33.357Z,40.00
2023-03-22T02:09:02.195Z,42.75
2023-03-22T02:11:39.536Z,42.00
2023-03-22T02:14:28.965Z,38.25
2023-03-22T02:17:15.283Z,42.00
2023-03-22T02:20:30.372Z,39.75
2023-03-22T02:23:23.193Z,42.50
2023-03-22T02:26:18.738Z,40.25
2023-03-22T02:29:14.882Z,36.00
2023-03-22T02:31:51.934Z,36.75
2023-03-22T02:34:46.566Z,41.50
2023-03-22T02:37:52.039Z,34.75
2023-03-22T02:40:35.467Z,40.75
2023-03-22T02:43:15.345Z,39.00
2023-03-22T02:45:53.763Z,36.00
2023-03-22T02:48:27.736Z,41.25
2023-03-22T02:51:23.168Z,36.00
2023-03-22T02:53:57.494Z,36.25
2023-03-22T02:56:35.859Z,40.75
2023-03-22T02:59:08.611Z,35.00
2023-03-22T03:01:42.963Z,42.75
2023-03-22T03:04:17.722Z,34.00
2023-03-22T03:06:50.204Z,33.50
2023-03-22T03:09:21.772Z,34.00
2023-03-22T03:11:53.451Z,36.00
2023-03-22T03:14:23.131Z,41.00
2023-03-22T03:17:26.550Z,38.25
2023-03-22T03:20:09.263Z,38.00
2023-03-22T03:22:56.360Z,40.00
2023-03-22T03:25:41.916Z,36.75
2023-03-22T03:28:39.285Z,42.75
2023-03-22T03:31:30.512Z,37.50
2023-03-22T03:34:36.444Z,33.75
2023-03-22T03:37:09.577Z,32.75
2023-03-22T03:39:45.837Z,32.50
2023-03-22T03:42:17.729Z,34.25
2023-03-22T03:44:46.988Z,38.00
2023-03-22T03:47:16.804Z,32.25
2023-03-22T03:49:45.567Z,32.50
2023-03-22T03:52:14.390Z,34.75
2023-03-22T03:54:43.692Z,32.25
2023-03-22T03:57:12.986Z,33.25
2023-03-22T03:59:41.368Z,37.50
2023-03-22T04:02:09.855Z,36.00
2023-03-22T04:04:38.242Z,32.00
2023-03-22T04:07:08.101Z,34.75
2023-03-22T04:09:38.973Z,38.00
2023-03-22T04:12:10.583Z,36.50
2023-03-22T04:14:39.326Z,32.00
2023-03-22T04:17:07.676Z,33.50
2023-03-22T04:19:36.194Z,29.00
2023-03-22T04:22:04.587Z,35.50
2023-03-22T04:24:32.958Z,31.50
2023-03-22T04:27:01.637Z,32.00
2023-03-22T04:29:33.182Z,31.25
2023-03-22T04:32:01.591Z,30.25
2023-03-22T04:34:30.326Z,31.50
2023-03-22T04:36:58.949Z,32.75
2023-03-22T04:39:27.463Z,31.00
2023-03-22T04:41:55.792Z,36.25
2023-03-22T04:44:24.165Z,30.75
2023-03-22T04:46:52.521Z,34.50
2023-03-22T04:49:20.883Z,33.25
2023-03-22T04:51:49.437Z,32.25
2023-03-22T04:54:17.854Z,37.50
2023-03-22T04:56:46.366Z,26.25
2023-03-22T04:59:15.082Z,33.00
2023-03-22T05:01:43.527Z,30.25
2023-03-22T05:04:11.900Z,36.00
2023-03-22T05:06:40.242Z,29.75
2023-03-22T05:09:09.202Z,31.75
2023-03-22T05:11:38.018Z,27.50
2023-03-22T05:14:07.599Z,29.25
2023-03-22T05:16:36.744Z,28.25
2023-03-22T05:19:05.135Z,28.00
2023-03-22T05:21:37.787Z,26.75
2023-03-22T05:24:06.668Z,29.25
2023-03-22T05:26:38.912Z,29.75
2023-03-22T05:29:07.501Z,28.00
2023-03-22T05:31:38.373Z,23.50
2023-03-22T05:34:06.751Z,26.25
2023-03-22T05:36:37.453Z,28.75
2023-03-22T05:39:05.978Z,30.00
2023-03-22T05:41:36.561Z,27.00
2023-03-22T05:44:06.223Z,29.50
2023-03-22T05:46:34.607Z,26.50
2023-03-22T05:49:03.060Z,26.75
2023-03-22T05:51:31.682Z,27.00
2023-03-22T05:54:00.083Z,24.50
2023-03-22T05:56:28.478Z,22.50
2023-03-22T05:58:59.145Z,20.50
2023-03-22T06:01:27.546Z,22.75
2023-03-22T06:03:55.867Z,22.25
2023-03-22T06:06:24.904Z,17.50
2023-03-22T06:08:53.245Z,19.75
2023-03-22T06:11:21.648Z,67.50
2023-03-22T06:13:50.120Z,24.50
2023-03-22T06:16:19.355Z,25.50
2023-03-22T06:18:47.770Z,23.50
2023-03-22T06:21:16.501Z,23.75
2023-03-22T06:23:45.054Z,24.00
2023-03-22T06:26:13.465Z,18.75
2023-03-22T06:28:41.806Z,28.25
2023-03-22T06:31:11.713Z,18.25
2023-03-22T06:33:40.136Z,22.00
2023-03-22T06:36:08.748Z,19.00
2023-03-22T06:38:37.174Z,20.25
2023-03-22T06:41:05.672Z,21.75
2023-03-22T06:43:34.164Z,19.00
2023-03-22T06:46:02.593Z,22.25
2023-03-22T06:48:30.978Z,15.75
2023-03-22T06:51:00.686Z,18.50
2023-03-22T06:53:29.124Z,18.25
2023-03-22T06:55:57.504Z,19.75
2023-03-22T06:58:25.927Z,23.00
2023-03-22T07:00:56.239Z,21.00
2023-03-22T07:03:25.123Z,19.25
2023-03-22T07:05:53.477Z,19.25
2023-03-22T07:08:21.870Z,22.00
2023-03-22T07:10:53.094Z,20.00
2023-03-22T07:13:21.576Z,22.25
2023-03-22T07:15:49.984Z,20.25
2023-03-22T07:18:18.352Z,20.75
2023-03-22T07:20:47.406Z,16.75
2023-03-22T07:23:17.451Z,19.50
2023-03-22T07:25:46.543Z,15.50
2023-03-22T07:28:15.454Z,17.50
2023-03-22T07:30:44.045Z,19.00
2023-03-22T07:33:12.511Z,21.25
2023-03-22T07:35:41.317Z,17.75
2023-03-22T07:38:09.687Z,17.75
2023-03-22T07:40:38.538Z,21.75
2023-03-22T07:43:07.053Z,20.00
2023-03-22T07:45:36.667Z,17.50
2023-03-22T07:48:05.168Z,17.50
2023-03-22T07:50:33.692Z,22.75
2023-03-22T07:53:02.378Z,19.25
2023-03-22T07:55:31.171Z,19.50
2023-03-22T07:57:59.530Z,15.00
2023-03-22T08:00:28.016Z,17.25
2023-03-22T08:02:56.646Z,20.00
2023-03-22T08:05:25.352Z,23.00
2023-03-22T08:07:55.254Z,17.75
2023-03-22T08:10:23.720Z,21.50
2023-03-22T08:12:52.260Z,18.75
2023-03-22T08:15:22.542Z,21.50
2023-03-22T08:17:51.161Z,19.00
2023-03-22T08:20:19.825Z,21.50
2023-03-22T08:22:48.345Z,20.00
2023-03-22T08:25:16.895Z,19.00
2023-03-22T08:27:45.236Z,16.25
2023-03-22T08:30:14.488Z,19.00
2023-03-22T08:32:42.854Z,19.50
2023-03-22T08:35:11.981Z,20.00
2023-03-22T08:37:41.014Z,19.00
2023-03-22T08:40:10.845Z,21.00
2023-03-22T08:42:39.358Z,20.00
2023-03-22T08:45:08.335Z,17.75
2023-03-22T08:47:36.975Z,18.50
2023-03-22T08:50:05.747Z,21.00
2023-03-22T08:52:34.103Z,21.50
2023-03-22T08:55:02.542Z,18.75
2023-03-22T08:57:31.095Z,18.50
2023-03-22T08:59:59.631Z,20.00
2023-03-22T09:02:29.030Z,18.75
2023-03-22T09:04:57.523Z,23.00
2023-03-22T09:07:25.937Z,21.75
2023-03-22T09:09:54.279Z,19.25
2023-03-22T09:12:22.877Z,23.25
2023-03-22T09:14:51.337Z,22.75
2023-03-22T09:17:21.409Z,17.75
2023-03-22T09:19:57.666Z,20.00
2023-03-22T09:22:31.337Z,19.00
2023-03-22T09:24:59.715Z,21.75
2023-03-22T09:27:28.135Z,20.75
2023-03-22T09:29:56.627Z,21.75
2023-03-22T09:32:25.097Z,25.50
2023-03-22T09:34:53.673Z,24.25
2023-03-22T09:37:22.118Z,19.25
2023-03-22T09:39:50.545Z,22.75
2023-03-22T09:42:37.548Z,20.50
2023-03-22T09:45:08.743Z,24.00
2023-03-22T09:47:44.997Z,20.50
2023-03-22T09:50:25.858Z,18.75
2023-03-22T09:52:55.003Z,22.75
2023-03-22T09:55:42.511Z,26.75
2023-03-22T09:59:00.203Z,21.00
2023-03-22T10:01:54.663Z,22.00
2023-03-22T10:05:00.143Z,20.00
2023-03-22T10:08:09.426Z,23.00
2023-03-22T10:10:42.839Z,20.75
2023-03-22T10:13:34.210Z,20.00
2023-03-22T10:16:07.741Z,23.25
2023-03-22T10:18:44.705Z,19.25
2023-03-22T10:21:16.331Z,22.75
2023-03-22T10:23:56.770Z,22.00
2023-03-22T10:26:39.722Z,23.00
2023-03-22T10:29:13.975Z,20.25
2023-03-22T10:31:46.224Z,21.50
2023-03-22T10:34:25.468Z,22.50
2023-03-22T10:36:54.403Z,20.00
2023-03-22T10:39:40.087Z,18.75
2023-03-22T10:42:19.116Z,21.00
2023-03-22T10:44:51.945Z,22.50
2023-03-22T10:47:36.267Z,25.75
2023-03-22T10:50:10.338Z,21.75
2023-03-22T10:53:07.472Z,24.75
2023-03-22T10:55:42.333Z,26.00
2023-03-22T10:58:20.896Z,21.00
2023-03-22T11:00:52.913Z,18.75
2023-03-22T11:03:45.650Z,21.75
2023-03-22T11:06:19.382Z,26.50
2023-03-22T11:08:51.423Z,22.75
2023-03-22T11:11:26.994Z,18.00
2023-03-22T11:14:00.909Z,21.75
2023-03-22T11:16:30.985Z,23.00
2023-03-22T11:19:02.338Z,24.25
2023-03-22T11:21:34.225Z,23.00
2023-03-22T11:24:06.912Z,23.50
2023-03-22T11:26:40.753Z,23.75
2023-03-22T11:29:20.213Z,26.75
2023-03-22T11:31:58.701Z,22.75
2023-03-22T11:34:30.673Z,20.50
2023-03-22T11:37:02.120Z,19.00
2023-03-22T11:39:31.298Z,22.75
2023-03-22T11:42:04.667Z,19.75
2023-03-22T11:44:38.814Z,19.50
2023-03-22T11:47:10.124Z,24.75
2023-03-22T11:49:47.327Z,24.50
2023-03-22T11:52:27.145Z,22.00
2023-03-22T11:54:57.086Z,20.75
2023-03-22T11:57:30.479Z,22.25
2023-03-22T12:00:12.564Z,22.25
2023-03-22T12:02:50.947Z,22.75
2023-03-22T12:05:26.523Z,25.00
2023-03-22T12:08:27.715Z,19.50
2023-03-22T12:11:05.985Z,20.00
2023-03-22T12:13:52.411Z,20.00
2023-03-22T12:16:28.129Z,19.00
2023-03-22T12:19:15.923Z,23.75
2023-03-22T12:21:46.845Z,20.75
2023-03-22T12:24:35.013Z,20.00
2023-03-22T12:27:30.575Z,22.50
2023-03-22T12:30:13.717Z,21.00
2023-03-22T12:33:00.574Z,21.00
2023-03-22T12:35:40.206Z,22.25
2023-03-22T12:38:31.879Z,21.25
2023-03-22T12:41:06.171Z,21.00
2023-03-22T12:44:03.770Z,18.00
2023-03-22T12:46:46.434Z,21.25
2023-03-22T12:49:33.419Z,21.00
2023-03-22T12:52:51.023Z,24.75
2023-03-22T12:55:30.562Z,22.75
2023-03-22T12:58:00.154Z,25.50
2023-03-22T13:00:46.356Z,22.50
2023-03-22T13:03:18.605Z,25.00
2023-03-22T13:05:51.101Z,25.50
2023-03-22T13:08:23.801Z,24.25
2023-03-22T13:11:06.344Z,23.00
2023-03-22T13:13:43.058Z,23.75
2023-03-22T13:16:14.198Z,22.75
2023-03-22T13:18:46.180Z,24.75
2023-03-22T13:21:20.091Z,24.00
2023-03-22T13:24:11.056Z,24.25
2023-03-22T13:26:47.012Z,22.50
2023-03-22T13:29:35.335Z,25.50
2023-03-22T13:32:08.083Z,22.50
2023-03-22T13:34:49.782Z,24.50
2023-03-22T13:37:38.909Z,27.25
2023-03-22T13:40:35.913Z,28.25
2023-03-22T13:43:39.216Z,26.25
2023-03-22T13:46:17.915Z,29.50
2023-03-22T13:48:49.690Z,27.50
2023-03-22T13:51:31.206Z,22.00
2023-03-22T13:54:14.969Z,26.75
2023-03-22T13:56:43.289Z,28.00
2023-03-22T13:59:28.253Z,25.50
2023-03-22T14:02:12.755Z,24.50
2023-03-22T14:04:51.269Z,26.75
2023-03-22T14:07:34.671Z,25.25
2023-03-22T14:10:18.438Z,23.25
2023-03-22T14:13:05.115Z,25.50
2023-03-22T14:15:39.730Z,27.75
2023-03-22T14:18:33.949Z,26.75
2023-03-22T14:21:07.391Z,27.00
